Accueil
METAR-TAF:

METAR-TAF

Aéroports :

Hachinohe, Japon

latitude: 40-33N, longitude: 141-28E, altitude: 46 m

Observation

Le bulletin a été fait il y a 4 heures et 23 minutes, à 14:22 UTC
Vent 3 kt de ouest/nord-ouest, variant entre ouest/sud-ouest et nord/nord-est
Température 14°C
Humidité 67%
Pression 1007 hPa
Visibilité 10 km ou plus
Quelques nuages à une hauteur de 3000 ft

METAR: RJSH 251422Z 29003KT 240V020 9999 FEW030 14/08 Q1007 RMK 1CU030 A2975

Heure: 03:45 (18:45 UTC)


TAF: absent

Observations et prévisions météorologiques de plus de 4000 aéroports (messages METAR et TAF).

Les stations disponibles sont représentées par des disques jaunes et rouges sur la carte.

Passer la souris dessus pour voir le nom de la station.

Cliquer dessus pour voir les observations et prévisions météorologiques.

Pour changer de carte: cliquez sur les boutons verts avec une croix noire pour zoomer, sur le bouton vert avec un tiret pour effectuer un zoom arrière, ou sur les flèches vertes pour les cartes adjacentes.


METAR-TAF: